Central Oregon RPC :: LAKEVIEW D3

liberation: 2020-09-05  07:30     latitude: 42.192405     longitude: -120.356890 64 birds
# LOFT PRING MILES ARRIVAL SPEED ToWin
1 RUETER FAMILY LOFT AU20-CORP-4527 180.003 2020-09-05 11:23:40.840 1355.719 00:00:00
2 RUETER FAMILY LOFT AU20-CORP-4603 180.003 2020-09-05 11:23:56.089 1354.246 00:00:15
3 RUETER FAMILY LOFT AU20-CORP-4572 180.003 2020-09-05 11:24:47.650 1349.290 00:01:07
4 RUETER FAMILY LOFT AU20-CORP-4526 180.003 2020-09-05 11:24:50.489 1349.018 00:01:10
5 RUETER FAMILY LOFT AU20-CORP-4551 180.003 2020-09-05 11:24:56.101 1348.481 00:01:15
6 RUETER FAMILY LOFT AU20-CORP-4574 180.003 2020-09-05 11:24:57.821 1348.316 00:01:17
7 RUETER FAMILY LOFT AU20-CORP-4587 180.003 2020-09-05 11:25:00.826 1348.029 00:01:20
8 RUETER FAMILY LOFT AU20-CORP-4579 180.003 2020-09-05 11:25:13.129 1346.854 00:01:32
9 ROCKY TOP AU20-CORP-4424 146.242 2020-09-05 10:41:28.186 1344.261 00:01:37
10 ROCKY TOP AU20-CORP-4414 146.242 2020-09-05 10:41:31.560 1343.867 00:01:40
11 STEELE LOFT AU20-CORP-5085 153.652 2020-09-05 10:51:52.933 1339.527 00:02:25
12 TOPIGEONUSA AU20-CORP-4862 153.345 2020-09-05 10:51:51.485 1337.015 00:02:47
13 TOPIGEONUSA AU20-CORP-4373 153.345 2020-09-05 10:51:54.804 1336.649 00:02:50
14 TOPIGEONUSA AU20-CORP-4861 153.345 2020-09-05 10:51:58.064 1336.290 00:02:54
15 RUETER FAMILY LOFT AU20-CORP-4518 180.003 2020-09-05 11:27:21.828 1334.683 00:03:41
16 RUETER FAMILY LOFT AU20-CORP-4580 180.003 2020-09-05 11:27:35.818 1333.373 00:03:55
17 ROCKY TOP AU20-CORP-4451 146.242 2020-09-05 10:43:03.473 1333.203 00:03:12
18 ROCKY TOP AU20-CORP-4450 146.242 2020-09-05 10:43:04.621 1333.071 00:03:14
19 ROCKY TOP AU20-CORP-4435 146.242 2020-09-05 10:43:05.711 1332.946 00:03:15
20 RUETER FAMILY LOFT AU20-CORP-4583 180.003 2020-09-05 11:34:18.253 1296.766 00:10:37
21 RUETER FAMILY LOFT AU20-CORP-4612 180.003 2020-09-05 11:34:54.513 1293.566 00:11:14
22 RUETER FAMILY LOFT AU20-CORP-4683 180.003 2020-09-05 11:36:28.164 1285.374 00:12:47
23 AMERICAN LOFT AU20-CORP-5441 150.054 2020-09-05 10:55:29.677 1285.168 00:10:42
24 RUETER FAMILY LOFT AU20-CORP-4566 180.003 2020-09-05 11:37:22.394 1280.677 00:13:42
25 RUETER FAMILY LOFT AU20-CORP-4550 180.003 2020-09-05 11:53:28.912 1202.380 00:29:48
26 AMERICAN LOFT AU20-CORP-5422 150.054 2020-09-05 11:26:03.098 1118.802 00:41:15
27 AMERICAN LOFT AU20-CORP-5400 150.054 2020-09-05 11:26:08.890 1118.345 00:41:21
28 JACKSONS LOFT AU20-CORP-4644 123.948 2020-09-05 10:48:00.508 1101.710 00:37:06
29 STEELE LOFT AU20-CORP-5083 153.652 2020-09-05 11:43:48.608 1065.469 00:54:20
30 JACKSONS LOFT AU20-CORP-5534 123.948 2020-09-05 10:55:53.295 1059.545 00:44:59
31 JACKSONS LOFT AU20-CORP-4667 123.948 2020-09-05 10:55:56.568 1059.265 00:45:02
32 JACKSONS LOFT AU20-CORP-4647 123.948 2020-09-05 10:56:45.234 1055.109 00:45:51
33 JACKSONS LOFT AU20-CORP-5525 123.948 2020-09-05 10:58:45.091 1045.012 00:47:51
34 JACKSONS LOFT AU20-CORP-5472 123.948 2020-09-05 10:58:47.785 1044.788 00:47:53
35 JACKSONS LOFT AU20-CORP-5528 123.948 2020-09-05 10:58:51.203 1044.503 00:47:57
36 JACKSONS LOFT AU20-CORP-5552 123.948 2020-09-05 11:00:23.836 1036.838 00:49:29
37 STEELE LOFT AU20-CORP-5041 153.652 2020-09-05 11:51:59.631 1032.187 01:02:31
38 STEELE LOFT AU20-CORP-5040 153.652 2020-09-05 11:52:17.010 1031.047 01:02:49
39 ROCKY TOP AU20-CORP-4400 146.242 2020-09-05 11:42:00.225 1021.356 01:02:09
40 JACKSONS LOFT AU20-CORP-5529 123.948 2020-09-05 11:08:01.485 1000.565 00:57:07
41 STEELE LOFT AU20-CORP-5089 153.652 2020-09-05 12:01:21.014 996.597 01:11:53
42 JACKSONS LOFT AU20-CORP-5524 123.948 2020-09-05 11:35:58.113 886.893 01:25:04
43 STEELE LOFT AU20-ARPU-37461 153.652 2020-09-05 12:38:42.609 875.989 01:49:14
44 STEELE LOFT AU20-CORP-5017 153.652 2020-09-05 12:46:16.689 855.028 01:56:48
45 JACKSONS LOFT AU20-CORP-4665 123.948 2020-09-05 11:53:22.487 828.279 01:42:28
46 RUETER FAMILY LOFT AU20-CORP-4507 180.003 2020-09-05 16:32:40.037 583.793 05:08:59
47 ROCKY TOP AU20-CORP-4433 146.242 2020-09-05 15:00:57.113 570.760 04:21:06
48 ROCKY TOP AU20-CORP-4413 146.242 2020-09-05 15:00:59.470 570.711 04:21:08
49 RUETER FAMILY LOFT AU20-CORP-4556 180.003 2020-09-05 17:25:09.879 532.299 06:01:29
50 RUETER FAMILY LOFT AU20-CORP-4651 180.003 2020-09-06 06:48:50.854 399.109 09:20:06
51 RUETER FAMILY LOFT AU20-CORP-4635 180.003 2020-09-06 08:08:06.636 362.874 10:39:22
52 ROCKY TOP AU20-CORP-4476 146.242 2020-09-06 08:37:15.205 285.291 11:52:20
53 JACKSONS LOFT AU20-CORP-5470 123.948 2020-09-06 06:52:31.838 273.552 10:36:33
54 JACKSONS LOFT AU20-CORP-5538 123.948 2020-09-06 07:27:34.107 262.039 11:11:36
55 JACKSONS LOFT AU20-CORP-4650 123.948 2020-09-06 08:24:15.171 245.334 12:08:17
56 JACKSONS LOFT AU20-CORP-5523 123.948 2020-09-06 08:33:29.644 242.811 12:17:31
57 JACKSONS LOFT AU20-CORP-5201 123.948 2020-09-06 09:02:35.219 235.195 12:46:37
AMERICAN LOFT AU20-CORP-5457 0 0000-00-00 00:00:00.000 0.000 00:00:00
AMERICAN LOFT AU20-CORP-5481 0 0000-00-00 00:00:00.000 0.000 00:00:00
AMERICAN LOFT AU20-CORP-5530 0 0000-00-00 00:00:00.000 0.000 00:00:00
AMERICAN LOFT AU20-CORP-5556 0 0000-00-00 00:00:00.000 0.000 00:00:00
AMERICAN LOFT AU20-CORP-5577 0 0000-00-00 00:00:00.000 0.000 00:00:00
JACKSONS LOFT AU20-CORP-5200 0 0000-00-00 00:00:00.000 0.000 00:00:00
TOPIGEONUSA AU20-CORP-4396 0 0000-00-00 00:00:00.000 0.000 00:00:00